Time;durP1;ratioP1;P1;durP2;ratioP2;P2;SDS_P1;SDS_P2;PMS_P1;PMS_P2;Temp;Humidity;BMP_temperature;BMP_pressure;BME280_temperature;BME280_humidity;BME280_pressure;Samples;Min_cycle;Max_cycle;Signal;HPM_P1;HPM_P2
2021/12/02 00:02:13;;;;;;;8.98;2.95;;;;;;;;;;4994974;28;20201;-47
2021/12/02 00:04:40;;;;;;;6.30;2.60;;;;;;;;;;4994954;28;20248;-47
2021/12/02 00:07:07;;;;;;;5.75;2.60;;;;;;;;;;4994962;28;20158;-47
2021/12/02 00:09:34;;;;;;;7.35;2.83;;;;;;;;;;4994784;28;20353;-47
2021/12/02 00:12:00;;;;;;;5.65;4.05;;;;;;;;;;4994485;28;20527;-49
2021/12/02 00:14:26;;;;;;;2.92;1.90;;;;;;;;;;4994454;28;20709;-51
2021/12/02 00:22:10;;;;;;;16.13;4.60;;;;;;;;;;4994584;28;20300;-47
2021/12/02 00:24:37;;;;;;;13.10;3.63;;;;;;;;;;4994416;28;20209;-47
2021/12/02 00:27:07;;;;;;;13.02;3.35;;;;;;;;;;4994343;28;20253;-47
2021/12/02 00:29:34;;;;;;;13.50;2.97;;;;;;;;;;4994014;28;20645;-49
2021/12/02 00:32:02;;;;;;;12.48;2.92;;;;;;;;;;4994255;28;20185;-48
2021/12/02 00:34:29;;;;;;;11.73;3.30;;;;;;;;;;4995207;28;20219;-47
2021/12/02 00:36:56;;;;;;;6.25;2.90;;;;;;;;;;4994332;28;20169;-47
2021/12/02 00:39:24;;;;;;;7.60;2.88;;;;;;;;;;4994227;28;20182;-47
2021/12/02 00:41:50;;;;;;;5.32;2.90;;;;;;;;;;4994087;28;20197;-47
2021/12/02 00:44:18;;;;;;;14.60;3.05;;;;;;;;;;4994250;28;20539;-47
2021/12/02 00:46:45;;;;;;;7.70;2.80;;;;;;;;;;4994321;28;20161;-50
2021/12/02 00:49:13;;;;;;;18.08;3.40;;;;;;;;;;4994138;28;20201;-47
2021/12/02 00:51:40;;;;;;;5.70;2.50;;;;;;;;;;4993680;28;20181;-47
2021/12/02 00:54:07;;;;;;;8.18;3.22;;;;;;;;;;4993871;28;20657;-47
2021/12/02 00:56:34;;;;;;;6.60;3.20;;;;;;;;;;4994319;28;20559;-47
2021/12/02 00:59:00;;;;;;;8.05;2.45;;;;;;;;;;4993966;28;20633;-47
2021/12/02 01:01:27;;;;;;;5.95;2.97;;;;;;;;;;4993615;28;20193;-47
2021/12/02 01:03:56;;;;;;;5.90;2.80;;;;;;;;;;4993896;28;20317;-51
2021/12/02 01:06:22;;;;;;;6.75;2.40;;;;;;;;;;4993878;28;20244;-48
2021/12/02 01:08:48;;;;;;;3.50;2.42;;;;;;;;;;4993692;28;20673;-49
2021/12/02 01:11:14;;;;;;;8.70;2.77;;;;;;;;;;4993402;28;20201;-50
2021/12/02 01:13:40;;;;;;;6.53;2.60;;;;;;;;;;4993632;28;20991;-47
2021/12/02 01:16:07;;;;;;;8.90;2.60;;;;;;;;;;4993792;28;20180;-51
2021/12/02 01:18:33;;;;;;;5.38;2.55;;;;;;;;;;4993611;28;20256;-47
2021/12/02 01:21:01;;;;;;;11.25;2.60;;;;;;;;;;4993225;28;20189;-47
2021/12/02 01:23:29;;;;;;;14.93;3.20;;;;;;;;;;4993606;28;20177;-47
2021/12/02 01:25:58;;;;;;;7.75;2.55;;;;;;;;;;4993511;28;20638;-47
2021/12/02 01:28:25;;;;;;;10.45;3.45;;;;;;;;;;4993392;28;20200;-47
2021/12/02 01:30:52;;;;;;;6.28;3.05;;;;;;;;;;4993162;28;20192;-47
2021/12/02 01:33:19;;;;;;;6.15;2.30;;;;;;;;;;4993211;28;20571;-47
2021/12/02 01:35:48;;;;;;;3.35;2.63;;;;;;;;;;4993329;28;20629;-48
2021/12/02 01:38:15;;;;;;;9.20;3.15;;;;;;;;;;4993176;28;20173;-47
2021/12/02 01:40:41;;;;;;;4.95;2.70;;;;;;;;;;4992973;28;20299;-48
2021/12/02 01:43:07;;;;;;;7.20;2.63;;;;;;;;;;4992362;28;20179;-47
2021/12/02 01:45:36;;;;;;;8.38;3.30;;;;;;;;;;4993195;28;20173;-47
2021/12/02 01:48:03;;;;;;;10.73;3.35;;;;;;;;;;4992930;28;20539;-47
2021/12/02 01:50:29;;;;;;;11.63;3.10;;;;;;;;;;4992865;28;20315;-47
2021/12/02 01:52:57;;;;;;;6.60;2.50;;;;;;;;;;4992814;28;20181;-47
2021/12/02 01:55:23;;;;;;;12.55;2.92;;;;;;;;;;4992935;28;20579;-48
2021/12/02 01:57:58;;;;;;;11.35;3.50;;;;;;;;;;4992968;28;20173;-48
2021/12/02 02:00:26;;;;;;;6.50;3.35;;;;;;;;;;4992649;28;20550;-47
2021/12/02 02:02:52;;;;;;;7.05;4.18;;;;;;;;;;4992028;28;20192;-47
2021/12/02 02:05:18;;;;;;;7.22;2.80;;;;;;;;;;4992287;28;20248;-48
2021/12/02 02:08:08;;;;;;;16.40;3.30;;;;;;;;;;4992652;28;20280;-47
2021/12/02 02:10:39;;;;;;;9.30;2.95;;;;;;;;;;4979987;28;20459;-48
2021/12/02 02:13:07;;;;;;;4.95;2.88;;;;;;;;;;4992467;28;20180;-47
2021/12/02 02:15:34;;;;;;;8.65;4.07;;;;;;;;;;4992773;28;20161;-47
2021/12/02 02:21:09;;;;;;;14.57;3.47;;;;;;;;;;4992471;28;20204;-47
2021/12/02 02:23:33;;;;;;;4.35;2.88;;;;;;;;;;4992070;28;20196;-47
2021/12/02 02:25:59;;;;;;;6.00;2.85;;;;;;;;;;4992822;28;20208;-48
2021/12/02 02:28:26;;;;;;;8.00;4.10;;;;;;;;;;4992451;28;20199;-47
2021/12/02 02:30:52;;;;;;;8.07;2.92;;;;;;;;;;4992221;28;20224;-46
2021/12/02 02:33:20;;;;;;;6.68;3.00;;;;;;;;;;4992448;28;20174;-47
2021/12/02 02:35:46;;;;;;;14.02;3.60;;;;;;;;;;4992535;28;20536;-47
2021/12/02 02:38:14;;;;;;;9.35;3.67;;;;;;;;;;4992446;28;20577;-47
2021/12/02 02:40:42;;;;;;;6.38;3.88;;;;;;;;;;4992309;28;20181;-48
2021/12/02 02:43:09;;;;;;;13.90;3.70;;;;;;;;;;4992590;28;20161;-47
2021/12/02 02:45:36;;;;;;;8.15;3.92;;;;;;;;;;4992457;28;20172;-47
2021/12/02 02:48:03;;;;;;;6.32;3.08;;;;;;;;;;4992223;28;20220;-47
2021/12/02 02:50:30;;;;;;;12.38;3.60;;;;;;;;;;4992121;28;20185;-47
2021/12/02 02:53:03;;;;;;;5.55;4.07;;;;;;;;;;4992638;28;20185;-49
2021/12/02 02:55:29;;;;;;;9.70;3.50;;;;;;;;;;4996351;28;20173;-47
2021/12/02 02:58:19;;;;;;;10.73;4.22;;;;;;;;;;4996323;28;20233;-47
2021/12/02 03:01:07;;;;;;;16.98;4.43;;;;;;;;;;4996004;28;20208;-50
2021/12/02 03:03:59;;;;;;;3.90;3.55;;;;;;;;;;4996006;28;20164;-48
2021/12/02 03:06:32;;;;;;;8.77;3.63;;;;;;;;;;4996183;28;20248;-46
2021/12/02 03:09:07;;;;;;;3.72;3.33;;;;;;;;;;4996055;28;20201;-47
2021/12/02 03:12:13;;;;;;;6.88;3.10;;;;;;;;;;4995743;28;20180;-50
2021/12/02 03:14:34;;;;;;;8.68;3.97;;;;;;;;;;4992708;28;20179;-47
2021/12/02 03:17:00;;;;;;;11.00;4.50;;;;;;;;;;4995907;28;20171;-49
2021/12/02 03:19:27;;;;;;;5.03;4.53;;;;;;;;;;4996165;28;20192;-46
2021/12/02 03:21:54;;;;;;;5.30;4.72;;;;;;;;;;4995416;28;20289;-47
2021/12/02 03:24:20;;;;;;;8.80;5.65;;;;;;;;;;4995779;28;20175;-50
2021/12/02 03:26:47;;;;;;;6.47;5.50;;;;;;;;;;4995672;28;20180;-47
2021/12/02 03:29:13;;;;;;;7.15;5.13;;;;;;;;;;4995575;28;20200;-47
2021/12/02 03:31:39;;;;;;;9.27;6.10;;;;;;;;;;4995259;28;20304;-49
2021/12/02 03:34:07;;;;;;;9.02;6.40;;;;;;;;;;4995350;28;20404;-50
2021/12/02 03:36:33;;;;;;;10.48;6.20;;;;;;;;;;4995571;28;20629;-47
2021/12/02 03:38:59;;;;;;;6.20;5.63;;;;;;;;;;4995486;28;20169;-46
2021/12/02 03:41:25;;;;;;;8.50;6.80;;;;;;;;;;4995134;28;20192;-46
2021/12/02 03:43:51;;;;;;;14.60;7.30;;;;;;;;;;4995471;28;20404;-47
2021/12/02 03:46:19;;;;;;;11.07;7.40;;;;;;;;;;4995258;28;20942;-47
2021/12/02 03:48:45;;;;;;;11.70;7.55;;;;;;;;;;4995188;28;20280;-47
2021/12/02 03:51:12;;;;;;;13.35;8.30;;;;;;;;;;4994903;28;20680;-47
2021/12/02 03:53:38;;;;;;;16.58;7.57;;;;;;;;;;4994950;28;20235;-50
2021/12/02 03:56:06;;;;;;;10.00;7.05;;;;;;;;;;4995215;28;20166;-48
2021/12/02 03:58:32;;;;;;;13.45;7.97;;;;;;;;;;4995072;28;20220;-50
2021/12/02 04:00:58;;;;;;;10.73;6.10;;;;;;;;;;4994816;28;20579;-47
2021/12/02 04:03:24;;;;;;;16.70;6.97;;;;;;;;;;4994874;28;20404;-47
2021/12/02 04:05:50;;;;;;;8.52;5.65;;;;;;;;;;4994336;28;20431;-47
2021/12/02 04:08:17;;;;;;;11.10;7.57;;;;;;;;;;4994803;28;20668;-47
2021/12/02 04:10:43;;;;;;;8.65;6.38;;;;;;;;;;4994600;28;20428;-47
2021/12/02 04:13:18;;;;;;;7.25;5.78;;;;;;;;;;4994763;28;20188;-48
2021/12/02 04:15:50;;;;;;;13.38;5.50;;;;;;;;;;4994921;28;20168;-47
2021/12/02 04:18:16;;;;;;;6.85;4.47;;;;;;;;;;4994708;28;20153;-48
2021/12/02 04:20:42;;;;;;;6.83;4.70;;;;;;;;;;4994594;28;20192;-50
2021/12/02 04:23:08;;;;;;;6.83;4.00;;;;;;;;;;4994593;28;20768;-49
2021/12/02 04:25:34;;;;;;;4.72;3.30;;;;;;;;;;4994627;28;20539;-47
2021/12/02 04:28:00;;;;;;;4.50;3.20;;;;;;;;;;4994513;28;20209;-47
2021/12/02 04:30:26;;;;;;;7.40;3.93;;;;;;;;;;4994113;28;20430;-47
2021/12/02 04:32:53;;;;;;;5.85;2.80;;;;;;;;;;4994411;28;20401;-50
2021/12/02 04:35:19;;;;;;;3.97;3.35;;;;;;;;;;4994435;28;20168;-47
2021/12/02 04:37:48;;;;;;;6.97;2.45;;;;;;;;;;4994370;28;20177;-47
2021/12/02 04:40:18;;;;;;;2.95;2.53;;;;;;;;;;4994150;28;20172;-47
2021/12/02 04:42:44;;;;;;;5.38;2.53;;;;;;;;;;4994391;28;20201;-46
2021/12/02 04:45:11;;;;;;;5.85;2.70;;;;;;;;;;4994068;28;20165;-47
2021/12/02 04:47:37;;;;;;;8.40;3.97;;;;;;;;;;4994053;28;20669;-47
2021/12/02 04:50:04;;;;;;;6.32;3.72;;;;;;;;;;4993854;28;20625;-47
2021/12/02 04:52:30;;;;;;;9.57;4.72;;;;;;;;;;4993958;28;20199;-50
2021/12/02 04:54:56;;;;;;;9.90;4.60;;;;;;;;;;4994005;28;20177;-46
2021/12/02 04:57:22;;;;;;;11.63;5.20;;;;;;;;;;4993993;28;20463;-47
2021/12/02 04:59:48;;;;;;;12.45;5.57;;;;;;;;;;4993642;28;20826;-47
2021/12/02 05:02:14;;;;;;;6.97;6.25;;;;;;;;;;4993814;28;20614;-47
2021/12/02 05:04:40;;;;;;;11.30;6.77;;;;;;;;;;4993820;28;20644;-48
2021/12/02 05:07:06;;;;;;;11.57;7.90;;;;;;;;;;4993922;28;20762;-47
2021/12/02 05:09:31;;;;;;;14.63;7.80;;;;;;;;;;4993644;28;20459;-47
2021/12/02 05:11:57;;;;;;;13.90;7.37;;;;;;;;;;4993761;28;20448;-47
2021/12/02 05:14:23;;;;;;;15.20;7.47;;;;;;;;;;4993484;28;20400;-49
2021/12/02 05:16:49;;;;;;;21.63;9.03;;;;;;;;;;4992577;28;20503;-49
2021/12/02 05:19:15;;;;;;;18.70;8.93;;;;;;;;;;4993555;28;20416;-47
2021/12/02 05:21:41;;;;;;;15.77;9.82;;;;;;;;;;4993336;28;20507;-47
2021/12/02 05:24:07;;;;;;;15.40;9.93;;;;;;;;;;4993498;28;20173;-47
2021/12/02 05:26:34;;;;;;;13.40;8.90;;;;;;;;;;4993534;28;20244;-46
2021/12/02 05:29:00;;;;;;;18.67;8.80;;;;;;;;;;4993258;28;20577;-47
2021/12/02 05:31:25;;;;;;;16.40;10.23;;;;;;;;;;4992988;28;20181;-47
2021/12/02 05:33:51;;;;;;;10.63;8.63;;;;;;;;;;4993263;28;20647;-47
2021/12/02 05:36:18;;;;;;;14.07;10.30;;;;;;;;;;4993172;28;20831;-47
2021/12/02 05:38:44;;;;;;;16.52;11.20;;;;;;;;;;4993242;28;20411;-47
2021/12/02 05:41:10;;;;;;;21.17;11.60;;;;;;;;;;4992980;28;20192;-47
2021/12/02 05:43:36;;;;;;;19.63;10.63;;;;;;;;;;4993213;28;20805;-47
2021/12/02 05:46:02;;;;;;;14.57;9.90;;;;;;;;;;4993136;28;20248;-47
2021/12/02 05:48:28;;;;;;;12.83;9.80;;;;;;;;;;4992925;28;20855;-48
2021/12/02 05:50:54;;;;;;;9.00;7.60;;;;;;;;;;4992743;28;20419;-49
2021/12/02 05:53:20;;;;;;;10.30;7.73;;;;;;;;;;4992790;28;20463;-47
2021/12/02 05:55:45;;;;;;;9.40;6.67;;;;;;;;;;4993045;28;20459;-46
2021/12/02 05:58:13;;;;;;;11.87;4.67;;;;;;;;;;4992862;28;20462;-47
2021/12/02 06:00:39;;;;;;;6.38;4.00;;;;;;;;;;4992430;28;20424;-46
2021/12/02 06:03:05;;;;;;;4.47;4.07;;;;;;;;;;4993105;28;20537;-47
2021/12/02 06:05:31;;;;;;;5.07;3.60;;;;;;;;;;4992805;28;20176;-47
2021/12/02 06:07:59;;;;;;;12.48;4.53;;;;;;;;;;4992674;28;20447;-47
2021/12/02 06:10:26;;;;;;;5.05;3.58;;;;;;;;;;4992375;28;20205;-47
2021/12/02 06:12:52;;;;;;;9.90;4.70;;;;;;;;;;4992576;28;20169;-47
2021/12/02 06:15:19;;;;;;;4.60;4.20;;;;;;;;;;4992497;28;20540;-47
2021/12/02 06:17:45;;;;;;;8.15;5.05;;;;;;;;;;4992655;28;20172;-47
2021/12/02 06:20:11;;;;;;;8.52;4.50;;;;;;;;;;4992261;28;20175;-47
2021/12/02 06:22:38;;;;;;;13.27;7.22;;;;;;;;;;4992493;28;20538;-50
2021/12/02 06:27:43;;;;;;;8.68;6.50;;;;;;;;;;4992333;28;20207;-47
2021/12/02 06:30:09;;;;;;;12.43;7.93;;;;;;;;;;4992210;28;20176;-47
2021/12/02 06:32:35;;;;;;;12.18;7.80;;;;;;;;;;4992442;28;20165;-46
2021/12/02 06:35:01;;;;;;;13.93;7.13;;;;;;;;;;5062260;23;20223;-51
2021/12/02 06:37:27;;;;;;;11.73;7.80;;;;;;;;;;5051706;28;20480;-51
2021/12/02 06:39:53;;;;;;;12.93;7.53;;;;;;;;;;5051877;28;20401;-51
2021/12/02 06:42:19;;;;;;;9.75;7.15;;;;;;;;;;5051632;28;20174;-51
2021/12/02 06:44:47;;;;;;;11.73;8.00;;;;;;;;;;5034100;28;20195;-53
2021/12/02 06:47:14;;;;;;;11.05;8.32;;;;;;;;;;5029132;28;20494;-54
2021/12/02 06:49:40;;;;;;;15.98;7.97;;;;;;;;;;5030115;28;20207;-52
2021/12/02 06:52:11;;;;;;;11.00;6.35;;;;;;;;;;5010671;28;20529;-53
2021/12/02 06:54:37;;;;;;;7.93;6.10;;;;;;;;;;5032001;28;20670;-51
2021/12/02 06:57:04;;;;;;;8.50;5.97;;;;;;;;;;5032064;28;20185;-51
2021/12/02 06:59:30;;;;;;;7.30;5.55;;;;;;;;;;5031743;28;20179;-51
2021/12/02 07:01:58;;;;;;;9.07;5.78;;;;;;;;;;5032077;28;20228;-52
2021/12/02 07:04:24;;;;;;;6.10;4.78;;;;;;;;;;5018677;28;20203;-54
2021/12/02 07:06:50;;;;;;;17.43;6.83;;;;;;;;;;5036169;28;20171;-53
2021/12/02 07:09:17;;;;;;;10.50;6.18;;;;;;;;;;5016815;28;20477;-51
2021/12/02 07:11:43;;;;;;;14.02;6.60;;;;;;;;;;5030889;28;20163;-51
2021/12/02 07:14:14;;;;;;;10.70;6.20;;;;;;;;;;5031855;28;20195;-52
2021/12/02 07:16:41;;;;;;;6.25;5.05;;;;;;;;;;5024677;28;20172;-52
2021/12/02 07:19:07;;;;;;;6.05;4.50;;;;;;;;;;5031400;28;20176;-51
2021/12/02 07:21:36;;;;;;;8.00;4.80;;;;;;;;;;5031107;28;20164;-52
2021/12/02 07:24:03;;;;;;;4.22;3.83;;;;;;;;;;5031181;28;20674;-52
2021/12/02 07:26:29;;;;;;;6.82;4.57;;;;;;;;;;5031297;28;20180;-51
2021/12/02 07:28:55;;;;;;;7.63;4.40;;;;;;;;;;5031147;28;20210;-52
2021/12/02 07:31:22;;;;;;;9.00;4.50;;;;;;;;;;5030976;28;20410;-52
2021/12/02 07:33:48;;;;;;;6.30;5.10;;;;;;;;;;5030879;28;20462;-51
2021/12/02 07:36:15;;;;;;;9.57;6.15;;;;;;;;;;5031165;28;20658;-52
2021/12/02 07:41:17;;;;;;;16.13;7.88;;;;;;;;;;5463450;23;20570;-49
2021/12/02 07:43:43;;;;;;;10.40;7.63;;;;;;;;;;5014033;28;20334;-50
2021/12/02 07:46:09;;;;;;;16.35;10.13;;;;;;;;;;5021841;28;20231;-50
2021/12/02 07:48:36;;;;;;;16.20;10.85;;;;;;;;;;5021975;28;20279;-51
2021/12/02 07:51:12;;;;;;;19.88;13.15;;;;;;;;;;5021088;28;20555;-51
2021/12/02 07:53:42;;;;;;;24.60;14.20;;;;;;;;;;5021938;28;20168;-51
2021/12/02 07:56:09;;;;;;;21.70;13.10;;;;;;;;;;5021298;28;20171;-50
2021/12/02 07:58:35;;;;;;;19.70;12.75;;;;;;;;;;5021337;28;20534;-47
2021/12/02 08:01:02;;;;;;;22.02;11.95;;;;;;;;;;5014492;28;20203;-50
2021/12/02 08:03:29;;;;;;;25.73;11.93;;;;;;;;;;5014621;28;20191;-48
2021/12/02 08:05:55;;;;;;;18.83;11.80;;;;;;;;;;5014644;28;20168;-48
2021/12/02 08:08:21;;;;;;;13.50;9.73;;;;;;;;;;5014907;28;20262;-47
2021/12/02 08:10:47;;;;;;;15.48;10.05;;;;;;;;;;5014040;28;20189;-48
2021/12/02 08:13:14;;;;;;;16.47;9.83;;;;;;;;;;5014572;28;20275;-47
2021/12/02 08:15:41;;;;;;;15.80;10.07;;;;;;;;;;5014569;28;20407;-47
2021/12/02 08:18:07;;;;;;;18.75;10.20;;;;;;;;;;5014360;28;20168;-47
2021/12/02 08:20:36;;;;;;;13.68;9.27;;;;;;;;;;5014101;28;20188;-49
2021/12/02 08:23:02;;;;;;;12.75;10.45;;;;;;;;;;5014321;28;20514;-48
2021/12/02 08:25:28;;;;;;;11.45;9.68;;;;;;;;;;5014311;28;20202;-47
2021/12/02 08:27:55;;;;;;;13.43;10.50;;;;;;;;;;4996551;28;20295;-48
2021/12/02 08:30:25;;;;;;;10.43;8.30;;;;;;;;;;5013677;28;20230;-47
2021/12/02 08:32:51;;;;;;;10.05;7.70;;;;;;;;;;5014229;28;20222;-48
2021/12/02 08:35:18;;;;;;;11.43;8.80;;;;;;;;;;5014147;28;20542;-48
2021/12/02 08:37:46;;;;;;;11.00;6.75;;;;;;;;;;5014036;28;20173;-48
2021/12/02 08:40:15;;;;;;;9.30;6.78;;;;;;;;;;4996558;28;20270;-48
2021/12/02 08:42:41;;;;;;;7.53;6.38;;;;;;;;;;4996784;28;20192;-47
2021/12/02 08:45:08;;;;;;;8.48;7.05;;;;;;;;;;5014347;28;20701;-47
2021/12/02 08:47:36;;;;;;;5.45;4.95;;;;;;;;;;5014628;28;20183;-49
2021/12/02 08:50:02;;;;;;;7.30;5.05;;;;;;;;;;4997193;28;20177;-47
2021/12/02 08:52:28;;;;;;;5.50;4.68;;;;;;;;;;4996597;28;20171;-47
2021/12/02 08:54:55;;;;;;;8.27;4.03;;;;;;;;;;5014444;28;20539;-47
2021/12/02 08:57:22;;;;;;;6.32;5.32;;;;;;;;;;5013842;28;20628;-48
2021/12/02 08:59:48;;;;;;;7.40;6.28;;;;;;;;;;5013493;28;20180;-47
2021/12/02 09:02:14;;;;;;;7.35;6.10;;;;;;;;;;5013821;28;20176;-47
2021/12/02 09:04:41;;;;;;;6.60;5.23;;;;;;;;;;5013890;28;20274;-47
2021/12/02 09:07:07;;;;;;;5.88;5.38;;;;;;;;;;5013787;28;20411;-47
2021/12/02 09:09:33;;;;;;;6.20;5.60;;;;;;;;;;5013391;28;20207;-47
2021/12/02 09:12:00;;;;;;;5.00;4.65;;;;;;;;;;5013422;28;20578;-50
2021/12/02 09:14:26;;;;;;;6.47;4.93;;;;;;;;;;4996395;28;20176;-48
2021/12/02 09:16:52;;;;;;;4.40;4.00;;;;;;;;;;5013882;28;20636;-48
2021/12/02 09:19:19;;;;;;;3.97;3.50;;;;;;;;;;5013921;28;20415;-48
2021/12/02 09:21:45;;;;;;;4.07;2.95;;;;;;;;;;4995824;28;20200;-47
2021/12/02 09:24:12;;;;;;;3.35;3.05;;;;;;;;;;5013918;28;20200;-47
2021/12/02 09:26:38;;;;;;;2.58;2.35;;;;;;;;;;4995876;28;20267;-47
2021/12/02 09:29:05;;;;;;;3.92;3.63;;;;;;;;;;4995938;28;20676;-48
2021/12/02 09:31:31;;;;;;;3.47;3.25;;;;;;;;;;4979778;28;20563;-47
2021/12/02 09:33:57;;;;;;;3.67;2.70;;;;;;;;;;5013774;28;20195;-47
2021/12/02 09:36:24;;;;;;;4.15;3.60;;;;;;;;;;4996125;28;20175;-47
2021/12/02 09:38:50;;;;;;;4.70;3.85;;;;;;;;;;4994800;28;20208;-47
2021/12/02 09:41:16;;;;;;;3.92;3.20;;;;;;;;;;4978725;28;20729;-47
2021/12/02 09:43:42;;;;;;;3.95;3.55;;;;;;;;;;4995110;28;20188;-48
2021/12/02 09:46:08;;;;;;;3.63;2.93;;;;;;;;;;4995514;28;20177;-47
2021/12/02 09:48:35;;;;;;;7.47;2.92;;;;;;;;;;5012478;28;20965;-47
2021/12/02 09:51:09;;;;;;;3.28;2.45;;;;;;;;;;5012345;28;20267;-47
2021/12/02 09:53:47;;;;;;;5.83;3.40;;;;;;;;;;5012684;28;20190;-48
2021/12/02 09:56:24;;;;;;;3.38;2.92;;;;;;;;;;5012626;28;20818;-47
2021/12/02 09:58:52;;;;;;;3.95;3.60;;;;;;;;;;5012548;28;20278;-47
2021/12/02 10:01:20;;;;;;;5.15;3.58;;;;;;;;;;5012252;28;20207;-48
2021/12/02 10:03:52;;;;;;;4.90;3.20;;;;;;;;;;5011912;28;20175;-47
2021/12/02 10:06:24;;;;;;;3.97;3.58;;;;;;;;;;5012047;28;20180;-48
2021/12/02 10:08:57;;;;;;;7.28;4.55;;;;;;;;;;5012088;28;20279;-48
2021/12/02 10:11:59;;;;;;;4.75;3.70;;;;;;;;;;5012177;28;20184;-47
2021/12/02 10:14:38;;;;;;;4.40;3.58;;;;;;;;;;5008842;28;20207;-48
2021/12/02 10:17:19;;;;;;;6.30;3.60;;;;;;;;;;5012298;28;20167;-48
2021/12/02 10:20:12;;;;;;;4.45;3.22;;;;;;;;;;5011952;28;20613;-48
2021/12/02 10:22:39;;;;;;;5.03;3.20;;;;;;;;;;5012219;28;20164;-48
2021/12/02 10:25:06;;;;;;;5.03;3.47;;;;;;;;;;5012203;28;20186;-48
2021/12/02 10:27:32;;;;;;;3.92;3.53;;;;;;;;;;5011890;28;20181;-47
2021/12/02 10:29:58;;;;;;;7.90;4.88;;;;;;;;;;5011769;28;20177;-47
2021/12/02 10:32:28;;;;;;;13.40;5.40;;;;;;;;;;5012048;28;20255;-48
2021/12/02 10:34:54;;;;;;;6.30;5.50;;;;;;;;;;5012216;28;20411;-47
2021/12/02 10:37:22;;;;;;;7.82;6.45;;;;;;;;;;5012029;28;20172;-47
2021/12/02 10:40:17;;;;;;;7.93;6.03;;;;;;;;;;5012076;28;20297;-48
2021/12/02 10:42:44;;;;;;;7.07;6.38;;;;;;;;;;4995100;28;20200;-48
2021/12/02 10:45:19;;;;;;;8.10;4.70;;;;;;;;;;5011869;28;20208;-48
2021/12/02 10:47:49;;;;;;;6.40;5.45;;;;;;;;;;5011639;28;20164;-47
2021/12/02 10:50:15;;;;;;;7.78;6.93;;;;;;;;;;5011397;28;20188;-48
2021/12/02 10:52:42;;;;;;;9.77;6.68;;;;;;;;;;5011741;28;20168;-50
2021/12/02 10:55:09;;;;;;;7.18;6.47;;;;;;;;;;5011934;28;20728;-47
2021/12/02 10:57:36;;;;;;;7.57;6.50;;;;;;;;;;5011904;28;20173;-48
2021/12/02 11:00:02;;;;;;;14.40;6.72;;;;;;;;;;5011314;28;20192;-48
2021/12/02 11:02:30;;;;;;;10.33;6.80;;;;;;;;;;5011834;28;20579;-47
2021/12/02 11:05:00;;;;;;;9.82;6.82;;;;;;;;;;5011648;28;20745;-48
2021/12/02 11:07:29;;;;;;;14.20;5.95;;;;;;;;;;5012025;28;20184;-48
2021/12/02 11:09:56;;;;;;;7.60;6.30;;;;;;;;;;5011254;28;20200;-48
2021/12/02 11:12:24;;;;;;;10.00;6.38;;;;;;;;;;5011782;28;20165;-49
2021/12/02 11:14:54;;;;;;;10.40;6.55;;;;;;;;;;5013434;28;20169;-50
2021/12/02 11:17:21;;;;;;;5.93;4.65;;;;;;;;;;5015400;28;20241;-48
2021/12/02 11:19:48;;;;;;;6.22;4.70;;;;;;;;;;5015075;28;20645;-48
2021/12/02 11:22:16;;;;;;;4.70;4.30;;;;;;;;;;5015135;28;20172;-48
2021/12/02 11:24:42;;;;;;;8.10;4.25;;;;;;;;;;5015488;28;20172;-48
2021/12/02 11:27:22;;;;;;;3.70;3.40;;;;;;;;;;5015134;28;20169;-47
2021/12/02 11:29:49;;;;;;;4.50;3.05;;;;;;;;;;5015223;28;20195;-48
2021/12/02 11:32:34;;;;;;;4.30;3.00;;;;;;;;;;5014963;28;20168;-48
2021/12/02 11:35:17;;;;;;;2.58;2.38;;;;;;;;;;5014866;28;20165;-48
2021/12/02 11:38:09;;;;;;;3.30;3.03;;;;;;;;;;5014952;28;20160;-48
2021/12/02 11:40:43;;;;;;;2.95;2.65;;;;;;;;;;5011360;28;20672;-47
2021/12/02 11:43:11;;;;;;;6.97;3.15;;;;;;;;;;5014948;28;20196;-48
2021/12/02 11:45:43;;;;;;;3.47;3.17;;;;;;;;;;5015155;28;20538;-48
2021/12/02 11:48:10;;;;;;;3.03;2.75;;;;;;;;;;5014805;28;20548;-48
2021/12/02 11:50:35;;;;;;;4.72;2.75;;;;;;;;;;5014285;28;20271;-48
2021/12/02 11:53:01;;;;;;;4.87;3.70;;;;;;;;;;5014592;28;20246;-48
2021/12/02 11:55:29;;;;;;;3.80;3.50;;;;;;;;;;5014773;28;20408;-48
2021/12/02 11:57:56;;;;;;;5.93;4.22;;;;;;;;;;5014710;28;20412;-48
2021/12/02 12:00:23;;;;;;;6.95;4.05;;;;;;;;;;5014377;28;20271;-48
2021/12/02 12:03:03;;;;;;;5.43;4.88;;;;;;;;;;5014456;28;20172;-51
2021/12/02 12:05:33;;;;;;;5.85;5.25;;;;;;;;;;5014473;28;20707;-48
2021/12/02 12:08:00;;;;;;;9.35;6.90;;;;;;;;;;5014556;28;20818;-47
2021/12/02 12:10:34;;;;;;;8.85;6.90;;;;;;;;;;5014197;28;20274;-47
2021/12/02 12:13:15;;;;;;;6.82;6.13;;;;;;;;;;5014564;28;20238;-47
2021/12/02 12:15:43;;;;;;;10.88;7.78;;;;;;;;;;5014199;28;20177;-48
2021/12/02 12:18:10;;;;;;;12.18;7.60;;;;;;;;;;5014372;28;20251;-48
2021/12/02 12:20:56;;;;;;;10.40;7.10;;;;;;;;;;5013986;28;20679;-47
2021/12/02 12:23:42;;;;;;;11.82;7.20;;;;;;;;;;5014403;28;20168;-48
2021/12/02 12:26:14;;;;;;;16.13;7.70;;;;;;;;;;5013491;28;20172;-48
2021/12/02 12:28:58;;;;;;;13.30;8.52;;;;;;;;;;5014050;28;20541;-48
2021/12/02 12:31:24;;;;;;;9.65;6.60;;;;;;;;;;5013623;28;20246;-48
2021/12/02 12:33:50;;;;;;;9.50;7.53;;;;;;;;;;5013982;28;20164;-48
2021/12/02 12:36:36;;;;;;;5.50;3.93;;;;;;;;;;5013925;28;20396;-48
2021/12/02 12:39:20;;;;;;;3.10;2.90;;;;;;;;;;5013924;28;20433;-48
2021/12/02 12:42:07;;;;;;;3.13;2.83;;;;;;;;;;5013619;28;20188;-48
2021/12/02 12:44:52;;;;;;;3.88;2.80;;;;;;;;;;5012659;28;20208;-48
2021/12/02 12:47:19;;;;;;;3.08;2.60;;;;;;;;;;5013838;28;20179;-48
2021/12/02 12:49:46;;;;;;;6.78;2.80;;;;;;;;;;5013257;28;20242;-51
2021/12/02 12:52:19;;;;;;;3.28;2.75;;;;;;;;;;5013844;28;20183;-48
2021/12/02 12:55:03;;;;;;;4.55;2.65;;;;;;;;;;5013732;28;20251;-51
2021/12/02 12:57:29;;;;;;;2.55;2.35;;;;;;;;;;5013679;28;20168;-48
2021/12/02 12:59:55;;;;;;;2.47;2.27;;;;;;;;;;5013119;28;20520;-48
2021/12/02 13:02:22;;;;;;;2.57;2.37;;;;;;;;;;5013555;28;20407;-51
2021/12/02 13:04:52;;;;;;;3.80;3.00;;;;;;;;;;5013398;28;20418;-48
2021/12/02 13:07:19;;;;;;;3.65;3.35;;;;;;;;;;5013515;28;20164;-48
2021/12/02 13:12:20;;;;;;;6.10;3.78;;;;;;;;;;5013758;28;20164;-48
2021/12/02 13:14:48;;;;;;;3.50;3.20;;;;;;;;;;5013361;28;20164;-48
2021/12/02 13:17:32;;;;;;;4.45;3.38;;;;;;;;;;5013394;28;20654;-48
2021/12/02 13:19:59;;;;;;;3.88;3.05;;;;;;;;;;5012696;28;20303;-48
2021/12/02 13:22:25;;;;;;;5.70;3.33;;;;;;;;;;4995844;28;20176;-51
2021/12/02 13:24:51;;;;;;;4.97;3.30;;;;;;;;;;5013208;28;20255;-48
2021/12/02 13:27:21;;;;;;;3.03;2.83;;;;;;;;;;5013214;28;20814;-48
2021/12/02 13:29:47;;;;;;;3.63;3.33;;;;;;;;;;5012835;28;20451;-48
2021/12/02 13:32:13;;;;;;;5.00;3.30;;;;;;;;;;5012914;28;20516;-48
2021/12/02 13:34:39;;;;;;;4.90;4.33;;;;;;;;;;5013452;28;20493;-48
2021/12/02 13:37:09;;;;;;;6.38;4.13;;;;;;;;;;5012526;28;20402;-48
2021/12/02 13:39:44;;;;;;;5.55;4.03;;;;;;;;;;5012355;28;20426;-47
2021/12/02 13:42:12;;;;;;;4.97;4.15;;;;;;;;;;5012732;28;20164;-48
2021/12/02 13:44:41;;;;;;;3.88;3.55;;;;;;;;;;5012784;28;20188;-49
2021/12/02 13:47:13;;;;;;;4.80;3.90;;;;;;;;;;5012706;28;20165;-48
2021/12/02 13:49:43;;;;;;;3.95;3.65;;;;;;;;;;5012899;28;20606;-48
2021/12/02 13:54:51;;;;;;;5.03;4.50;;;;;;;;;;5008452;28;20204;-50
2021/12/02 13:57:26;;;;;;;3.95;3.65;;;;;;;;;;5003541;28;20165;-51
2021/12/02 13:59:52;;;;;;;8.45;5.13;;;;;;;;;;4997645;28;20185;-48
2021/12/02 14:02:23;;;;;;;5.32;4.70;;;;;;;;;;5004150;28;20171;-48
2021/12/02 14:04:49;;;;;;;5.57;4.93;;;;;;;;;;4996112;28;20173;-48
2021/12/02 14:07:26;;;;;;;4.55;4.15;;;;;;;;;;4992954;28;20173;-48
2021/12/02 14:09:56;;;;;;;4.25;3.85;;;;;;;;;;4992418;28;20291;-50
2021/12/02 14:12:24;;;;;;;4.90;3.47;;;;;;;;;;4993031;28;20180;-48
2021/12/02 14:15:06;;;;;;;5.78;3.63;;;;;;;;;;4992680;28;20663;-48
2021/12/02 14:17:33;;;;;;;3.85;3.55;;;;;;;;;;4992812;28;20175;-48
2021/12/02 14:20:03;;;;;;;4.55;4.07;;;;;;;;;;4992334;28;20502;-48
2021/12/02 14:22:29;;;;;;;6.18;4.22;;;;;;;;;;4992667;28;20636;-48
2021/12/02 14:24:55;;;;;;;6.35;3.58;;;;;;;;;;4992660;28;20227;-48
2021/12/02 14:27:21;;;;;;;4.07;3.77;;;;;;;;;;4993042;28;20185;-48
2021/12/02 14:29:47;;;;;;;4.93;3.90;;;;;;;;;;4998269;28;20494;-49
2021/12/02 14:32:13;;;;;;;3.93;3.53;;;;;;;;;;5004216;28;20400;-49
2021/12/02 14:34:39;;;;;;;4.55;3.55;;;;;;;;;;5003253;28;20434;-50
2021/12/02 14:37:10;;;;;;;5.23;3.73;;;;;;;;;;5010147;28;20172;-48
2021/12/02 14:39:39;;;;;;;3.50;3.20;;;;;;;;;;4995783;28;20411;-48
2021/12/02 14:42:05;;;;;;;3.67;3.38;;;;;;;;;;5005024;28;20563;-48
2021/12/02 14:44:35;;;;;;;8.20;3.38;;;;;;;;;;5002122;28;20690;-48
2021/12/02 14:47:03;;;;;;;3.17;2.83;;;;;;;;;;4997524;28;20234;-47
2021/12/02 14:49:35;;;;;;;3.20;2.80;;;;;;;;;;5009741;28;20216;-48
2021/12/02 14:52:06;;;;;;;2.67;2.58;;;;;;;;;;4995953;28;20568;-48
2021/12/02 14:54:32;;;;;;;2.33;2.22;;;;;;;;;;5005512;28;20168;-47
2021/12/02 14:56:59;;;;;;;2.27;2.00;;;;;;;;;;4999451;28;20646;-48
2021/12/02 14:59:32;;;;;;;2.97;2.50;;;;;;;;;;5001551;28;20407;-50
2021/12/02 15:02:07;;;;;;;2.53;2.25;;;;;;;;;;4994852;28;20184;-50
2021/12/02 15:04:34;;;;;;;2.38;2.17;;;;;;;;;;4995190;28;20172;-48
2021/12/02 15:07:07;;;;;;;3.38;2.45;;;;;;;;;;4995513;28;20547;-48